sensor_id;sensor_type;location;lat;lon;timestamp;noise_LAeq;noise_LA_min;noise_LA_max;noise_LA01;noise_LA95
18377;Laerm;9315;52.624;13.544;2023-08-17T00:02:07;52.81;34.43;70.32;;
18377;Laerm;9315;52.624;13.544;2023-08-17T00:04:34;51.15;34.35;67.16;;
18377;Laerm;9315;52.624;13.544;2023-08-17T00:07:01;39.46;34.98;45.63;;
18377;Laerm;9315;52.624;13.544;2023-08-17T00:09:28;53.17;34.47;70.09;;
18377;Laerm;9315;52.624;13.544;2023-08-17T00:11:55;54.36;33.96;72.37;;
18377;Laerm;9315;52.624;13.544;2023-08-17T00:14:23;57.70;34.35;75.86;;
18377;Laerm;9315;52.624;13.544;2023-08-17T00:16:51;61.11;34.71;78.04;;
18377;Laerm;9315;52.624;13.544;2023-08-17T00:19:18;38.20;34.43;43.35;;
18377;Laerm;9315;52.624;13.544;2023-08-17T00:21:46;38.36;34.34;44.17;;
18377;Laerm;9315;52.624;13.544;2023-08-17T00:24:13;38.89;34.11;49.11;;
18377;Laerm;9315;52.624;13.544;2023-08-17T00:26:40;52.83;34.85;68.24;;
18377;Laerm;9315;52.624;13.544;2023-08-17T00:29:07;61.56;38.05;77.18;;
18377;Laerm;9315;52.624;13.544;2023-08-17T00:31:34;60.67;37.51;75.59;;
18377;Laerm;9315;52.624;13.544;2023-08-17T00:34:02;39.85;36.31;45.08;;
18377;Laerm;9315;52.624;13.544;2023-08-17T00:36:29;39.84;35.76;45.95;;
18377;Laerm;9315;52.624;13.544;2023-08-17T00:38:56;59.29;36.81;75.25;;
18377;Laerm;9315;52.624;13.544;2023-08-17T00:41:23;53.69;36.46;71.61;;
18377;Laerm;9315;52.624;13.544;2023-08-17T00:43:51;55.13;36.13;71.75;;
18377;Laerm;9315;52.624;13.544;2023-08-17T00:46:18;50.51;35.64;69.53;;
18377;Laerm;9315;52.624;13.544;2023-08-17T00:48:47;54.75;35.10;74.50;;
18377;Laerm;9315;52.624;13.544;2023-08-17T00:51:15;62.20;34.62;80.23;;
18377;Laerm;9315;52.624;13.544;2023-08-17T00:53:42;59.16;35.44;76.26;;
18377;Laerm;9315;52.624;13.544;2023-08-17T00:56:10;55.09;33.69;76.12;;
18377;Laerm;9315;52.624;13.544;2023-08-17T00:58:37;37.62;34.38;42.91;;
18377;Laerm;9315;52.624;13.544;2023-08-17T01:01:05;49.24;33.66;64.33;;
18377;Laerm;9315;52.624;13.544;2023-08-17T01:03:32;62.95;34.98;81.41;;
18377;Laerm;9315;52.624;13.544;2023-08-17T01:06:00;53.00;34.06;71.01;;
18377;Laerm;9315;52.624;13.544;2023-08-17T01:08:30;54.87;33.07;74.43;;
18377;Laerm;9315;52.624;13.544;2023-08-17T01:17:00;48.41;33.96;64.29;;
18377;Laerm;9315;52.624;13.544;2023-08-17T01:19:28;39.51;33.98;49.15;;
18377;Laerm;9315;52.624;13.544;2023-08-17T01:22:05;55.98;35.51;73.89;;
18377;Laerm;9315;52.624;13.544;2023-08-17T01:24:35;60.50;35.47;75.91;;
18377;Laerm;9315;52.624;13.544;2023-08-17T01:27:02;57.20;35.51;73.55;;
18377;Laerm;9315;52.624;13.544;2023-08-17T01:29:30;60.09;35.17;77.97;;
18377;Laerm;9315;52.624;13.544;2023-08-17T01:32:21;51.13;35.68;67.66;;
18377;Laerm;9315;52.624;13.544;2023-08-17T01:35:07;58.30;35.98;73.09;;
18377;Laerm;9315;52.624;13.544;2023-08-17T01:37:38;59.14;36.28;75.98;;
18377;Laerm;9315;52.624;13.544;2023-08-17T01:40:09;55.16;36.50;69.07;;
18377;Laerm;9315;52.624;13.544;2023-08-17T01:42:37;55.09;36.63;73.14;;
18377;Laerm;9315;52.624;13.544;2023-08-17T01:45:07;56.86;36.89;74.68;;
18377;Laerm;9315;52.624;13.544;2023-08-17T01:47:35;58.75;38.42;76.32;;
18377;Laerm;9315;52.624;13.544;2023-08-17T01:50:03;56.42;36.37;71.55;;
18377;Laerm;9315;52.624;13.544;2023-08-17T01:52:30;39.86;36.38;45.17;;
18377;Laerm;9315;52.624;13.544;2023-08-17T01:55:00;59.20;38.06;74.48;;
18377;Laerm;9315;52.624;13.544;2023-08-17T01:57:30;59.93;36.74;74.14;;
18377;Laerm;9315;52.624;13.544;2023-08-17T01:59:57;54.46;36.90;69.34;;
18377;Laerm;9315;52.624;13.544;2023-08-17T02:02:24;62.45;37.92;77.68;;
18377;Laerm;9315;52.624;13.544;2023-08-17T02:04:51;59.65;37.86;75.34;;
18377;Laerm;9315;52.624;13.544;2023-08-17T02:07:19;61.76;40.13;75.30;;
18377;Laerm;9315;52.624;13.544;2023-08-17T02:09:46;41.36;36.10;47.44;;
18377;Laerm;9315;52.624;13.544;2023-08-17T02:12:13;57.67;36.89;73.04;;
18377;Laerm;9315;52.624;13.544;2023-08-17T02:14:40;63.12;38.89;76.00;;
18377;Laerm;9315;52.624;13.544;2023-08-17T02:17:08;54.77;37.41;72.15;;
18377;Laerm;9315;52.624;13.544;2023-08-17T02:19:35;59.77;37.66;73.23;;
18377;Laerm;9315;52.624;13.544;2023-08-17T02:22:02;61.15;37.80;76.98;;
18377;Laerm;9315;52.624;13.544;2023-08-17T02:24:32;61.81;38.29;75.91;;
18377;Laerm;9315;52.624;13.544;2023-08-17T02:26:59;61.61;38.16;76.86;;
18377;Laerm;9315;52.624;13.544;2023-08-17T02:29:26;63.08;38.81;75.67;;
18377;Laerm;9315;52.624;13.544;2023-08-17T02:31:53;61.00;38.93;74.70;;
18377;Laerm;9315;52.624;13.544;2023-08-17T02:34:21;60.27;37.93;74.06;;
18377;Laerm;9315;52.624;13.544;2023-08-17T02:36:48;63.34;39.72;77.32;;
18377;Laerm;9315;52.624;13.544;2023-08-17T02:39:15;62.64;40.27;75.81;;
18377;Laerm;9315;52.624;13.544;2023-08-17T02:41:42;58.26;39.38;70.91;;
18377;Laerm;9315;52.624;13.544;2023-08-17T02:44:11;62.71;38.92;75.23;;
18377;Laerm;9315;52.624;13.544;2023-08-17T02:46:38;62.20;38.85;77.04;;
18377;Laerm;9315;52.624;13.544;2023-08-17T02:49:05;58.14;38.33;72.50;;
18377;Laerm;9315;52.624;13.544;2023-08-17T02:51:33;65.47;40.33;78.14;;
18377;Laerm;9315;52.624;13.544;2023-08-17T02:54:00;67.32;42.36;80.35;;
18377;Laerm;9315;52.624;13.544;2023-08-17T02:56:27;66.45;40.21;80.87;;
18377;Laerm;9315;52.624;13.544;2023-08-17T02:58:54;63.08;40.57;77.17;;
18377;Laerm;9315;52.624;13.544;2023-08-17T03:01:21;63.15;42.73;76.63;;
18377;Laerm;9315;52.624;13.544;2023-08-17T03:03:48;67.26;41.42;81.56;;
18377;Laerm;9315;52.624;13.544;2023-08-17T03:06:16;62.26;40.82;75.11;;
18377;Laerm;9315;52.624;13.544;2023-08-17T03:08:43;62.82;40.54;77.89;;
18377;Laerm;9315;52.624;13.544;2023-08-17T03:11:10;65.25;44.22;80.84;;
18377;Laerm;9315;52.624;13.544;2023-08-17T03:13:37;65.11;43.48;81.45;;
18377;Laerm;9315;52.624;13.544;2023-08-17T03:16:04;66.02;42.98;80.94;;
18377;Laerm;9315;52.624;13.544;2023-08-17T03:18:31;65.52;41.86;74.24;;
18377;Laerm;9315;52.624;13.544;2023-08-17T03:20:59;65.91;43.67;75.02;;
18377;Laerm;9315;52.624;13.544;2023-08-17T03:23:26;64.44;43.80;77.82;;
18377;Laerm;9315;52.624;13.544;2023-08-17T03:25:53;67.28;44.96;79.51;;
18377;Laerm;9315;52.624;13.544;2023-08-17T03:28:21;66.67;43.40;79.45;;
18377;Laerm;9315;52.624;13.544;2023-08-17T03:30:48;65.93;44.46;76.61;;
18377;Laerm;9315;52.624;13.544;2023-08-17T03:33:16;64.81;43.15;78.85;;
18377;Laerm;9315;52.624;13.544;2023-08-17T03:35:43;65.41;43.23;78.17;;
18377;Laerm;9315;52.624;13.544;2023-08-17T03:38:10;65.04;42.41;75.86;;
18377;Laerm;9315;52.624;13.544;2023-08-17T03:40:37;65.96;45.52;78.88;;
18377;Laerm;9315;52.624;13.544;2023-08-17T03:43:04;65.60;45.30;75.31;;
18377;Laerm;9315;52.624;13.544;2023-08-17T03:45:35;66.92;42.82;80.98;;
18377;Laerm;9315;52.624;13.544;2023-08-17T03:48:09;66.37;43.64;77.56;;
18377;Laerm;9315;52.624;13.544;2023-08-17T03:50:36;66.19;43.72;76.58;;
18377;Laerm;9315;52.624;13.544;2023-08-17T03:53:03;63.77;42.40;75.56;;
18377;Laerm;9315;52.624;13.544;2023-08-17T03:55:31;65.81;45.22;76.51;;
18377;Laerm;9315;52.624;13.544;2023-08-17T03:57:58;68.25;44.19;77.63;;
18377;Laerm;9315;52.624;13.544;2023-08-17T04:00:25;67.32;44.61;77.30;;
18377;Laerm;9315;52.624;13.544;2023-08-17T04:02:53;68.77;45.13;78.77;;
18377;Laerm;9315;52.624;13.544;2023-08-17T04:05:20;65.97;42.84;76.59;;
18377;Laerm;9315;52.624;13.544;2023-08-17T04:07:48;67.31;43.18;80.21;;
18377;Laerm;9315;52.624;13.544;2023-08-17T04:10:16;68.24;42.90;86.74;;
18377;Laerm;9315;52.624;13.544;2023-08-17T04:12:43;69.12;43.83;79.14;;
18377;Laerm;9315;52.624;13.544;2023-08-17T04:15:10;67.49;44.66;80.21;;
18377;Laerm;9315;52.624;13.544;2023-08-17T04:17:37;70.01;46.81;81.70;;
18377;Laerm;9315;52.624;13.544;2023-08-17T04:20:06;70.21;47.37;85.96;;
18377;Laerm;9315;52.624;13.544;2023-08-17T04:22:34;68.67;46.01;81.60;;
18377;Laerm;9315;52.624;13.544;2023-08-17T04:25:01;69.17;48.39;79.33;;
18377;Laerm;9315;52.624;13.544;2023-08-17T04:27:29;67.77;45.42;81.18;;
18377;Laerm;9315;52.624;13.544;2023-08-17T04:29:57;68.78;44.69;78.49;;
18377;Laerm;9315;52.624;13.544;2023-08-17T04:32:24;69.43;45.25;82.76;;
18377;Laerm;9315;52.624;13.544;2023-08-17T04:34:52;68.57;46.07;77.34;;
18377;Laerm;9315;52.624;13.544;2023-08-17T04:37:20;69.25;47.84;79.73;;
18377;Laerm;9315;52.624;13.544;2023-08-17T04:39:48;69.65;47.52;80.13;;
18377;Laerm;9315;52.624;13.544;2023-08-17T04:42:16;65.76;48.86;76.15;;
18377;Laerm;9315;52.624;13.544;2023-08-17T04:44:47;66.79;43.74;76.38;;
18377;Laerm;9315;52.624;13.544;2023-08-17T04:47:14;69.16;43.54;82.18;;
18377;Laerm;9315;52.624;13.544;2023-08-17T04:49:44;67.57;43.92;79.35;;
18377;Laerm;9315;52.624;13.544;2023-08-17T04:52:11;69.00;46.07;77.96;;
18377;Laerm;9315;52.624;13.544;2023-08-17T04:54:38;67.63;44.70;77.02;;
18377;Laerm;9315;52.624;13.544;2023-08-17T04:57:07;69.44;46.86;80.33;;
18377;Laerm;9315;52.624;13.544;2023-08-17T04:59:35;68.94;48.07;79.51;;
18377;Laerm;9315;52.624;13.544;2023-08-17T05:02:02;68.94;43.69;87.80;;
18377;Laerm;9315;52.624;13.544;2023-08-17T05:04:30;70.06;44.25;85.78;;
18377;Laerm;9315;52.624;13.544;2023-08-17T05:06:58;67.48;44.05;78.16;;
18377;Laerm;9315;52.624;13.544;2023-08-17T05:09:27;67.59;43.78;77.27;;
18377;Laerm;9315;52.624;13.544;2023-08-17T05:11:54;68.17;49.09;76.17;;
18377;Laerm;9315;52.624;13.544;2023-08-17T05:14:22;66.98;46.43;76.32;;
18377;Laerm;9315;52.624;13.544;2023-08-17T05:16:49;67.85;41.94;79.38;;
18377;Laerm;9315;52.624;13.544;2023-08-17T05:19:16;68.59;43.64;79.64;;
18377;Laerm;9315;52.624;13.544;2023-08-17T05:21:43;69.31;48.53;77.35;;
18377;Laerm;9315;52.624;13.544;2023-08-17T05:24:11;70.40;48.42;83.21;;
18377;Laerm;9315;52.624;13.544;2023-08-17T05:26:38;65.42;43.19;75.03;;
18377;Laerm;9315;52.624;13.544;2023-08-17T05:29:09;68.24;45.12;78.25;;
18377;Laerm;9315;52.624;13.544;2023-08-17T05:31:37;69.30;50.99;80.37;;
18377;Laerm;9315;52.624;13.544;2023-08-17T05:34:07;68.63;43.52;76.27;;
18377;Laerm;9315;52.624;13.544;2023-08-17T05:36:35;67.93;47.00;78.25;;
18377;Laerm;9315;52.624;13.544;2023-08-17T05:39:02;69.38;49.10;79.02;;
18377;Laerm;9315;52.624;13.544;2023-08-17T05:41:30;68.91;44.49;80.28;;
18377;Laerm;9315;52.624;13.544;2023-08-17T05:43:57;69.85;49.73;80.48;;
18377;Laerm;9315;52.624;13.544;2023-08-17T05:46:24;71.07;48.44;88.19;;
18377;Laerm;9315;52.624;13.544;2023-08-17T05:48:52;69.20;44.97;79.16;;
18377;Laerm;9315;52.624;13.544;2023-08-17T05:51:19;68.36;47.97;79.70;;
18377;Laerm;9315;52.624;13.544;2023-08-17T05:53:46;67.72;43.97;78.22;;
18377;Laerm;9315;52.624;13.544;2023-08-17T05:56:13;68.87;41.30;79.92;;
18377;Laerm;9315;52.624;13.544;2023-08-17T05:58:40;68.75;42.12;81.56;;
18377;Laerm;9315;52.624;13.544;2023-08-17T06:01:09;68.62;45.39;77.86;;
18377;Laerm;9315;52.624;13.544;2023-08-17T06:03:40;68.95;42.30;80.89;;
18377;Laerm;9315;52.624;13.544;2023-08-17T06:06:07;69.93;48.67;82.21;;
18377;Laerm;9315;52.624;13.544;2023-08-17T06:08:34;65.72;41.27;77.52;;
18377;Laerm;9315;52.624;13.544;2023-08-17T06:11:01;68.58;44.86;79.44;;
18377;Laerm;9315;52.624;13.544;2023-08-17T06:13:29;69.16;44.11;80.55;;
18377;Laerm;9315;52.624;13.544;2023-08-17T06:15:59;68.48;41.50;80.08;;
18377;Laerm;9315;52.624;13.544;2023-08-17T06:18:26;66.71;39.19;78.64;;
18377;Laerm;9315;52.624;13.544;2023-08-17T06:20:53;68.53;38.00;78.23;;
18377;Laerm;9315;52.624;13.544;2023-08-17T06:23:21;69.03;40.06;80.51;;
18377;Laerm;9315;52.624;13.544;2023-08-17T06:25:48;67.77;39.23;76.89;;
18377;Laerm;9315;52.624;13.544;2023-08-17T06:28:15;66.26;41.66;81.18;;
18377;Laerm;9315;52.624;13.544;2023-08-17T06:30:42;67.79;42.08;77.33;;
18377;Laerm;9315;52.624;13.544;2023-08-17T06:33:10;68.83;44.71;78.83;;
18377;Laerm;9315;52.624;13.544;2023-08-17T06:35:37;71.37;48.18;82.59;;
18377;Laerm;9315;52.624;13.544;2023-08-17T06:38:06;69.28;45.23;79.72;;
18377;Laerm;9315;52.624;13.544;2023-08-17T06:40:33;67.57;39.34;77.48;;
18377;Laerm;9315;52.624;13.544;2023-08-17T06:43:00;67.27;43.59;76.66;;
18377;Laerm;9315;52.624;13.544;2023-08-17T06:45:28;68.03;39.12;81.06;;
18377;Laerm;9315;52.624;13.544;2023-08-17T06:47:55;68.70;39.70;80.92;;
18377;Laerm;9315;52.624;13.544;2023-08-17T06:50:22;68.10;49.43;83.83;;
18377;Laerm;9315;52.624;13.544;2023-08-17T06:52:49;67.40;41.31;77.79;;
18377;Laerm;9315;52.624;13.544;2023-08-17T06:55:16;67.14;42.31;77.95;;
18377;Laerm;9315;52.624;13.544;2023-08-17T06:57:44;67.98;39.69;78.93;;
18377;Laerm;9315;52.624;13.544;2023-08-17T07:00:11;68.44;40.25;77.92;;
18377;Laerm;9315;52.624;13.544;2023-08-17T07:02:39;69.50;40.52;81.11;;
18377;Laerm;9315;52.624;13.544;2023-08-17T07:05:20;67.99;39.96;80.96;;
18377;Laerm;9315;52.624;13.544;2023-08-17T07:07:47;68.83;39.31;83.61;;
18377;Laerm;9315;52.624;13.544;2023-08-17T07:10:15;66.61;38.25;76.18;;
18377;Laerm;9315;52.624;13.544;2023-08-17T07:12:42;68.74;43.84;78.30;;
18377;Laerm;9315;52.624;13.544;2023-08-17T07:15:10;69.43;49.44;81.75;;
18377;Laerm;9315;52.624;13.544;2023-08-17T07:17:41;68.01;49.53;78.49;;
18377;Laerm;9315;52.624;13.544;2023-08-17T07:20:09;68.76;45.90;77.77;;
18377;Laerm;9315;52.624;13.544;2023-08-17T07:22:43;66.96;36.94;78.80;;
18377;Laerm;9315;52.624;13.544;2023-08-17T07:25:11;69.03;41.21;79.58;;
18377;Laerm;9315;52.624;13.544;2023-08-17T07:27:38;68.40;38.61;80.35;;
18377;Laerm;9315;52.624;13.544;2023-08-17T07:30:06;68.30;43.87;75.79;;
18377;Laerm;9315;52.624;13.544;2023-08-17T07:32:34;67.31;40.50;77.63;;
18377;Laerm;9315;52.624;13.544;2023-08-17T07:35:01;68.90;46.88;80.88;;
18377;Laerm;9315;52.624;13.544;2023-08-17T07:37:28;68.45;43.53;77.82;;
18377;Laerm;9315;52.624;13.544;2023-08-17T07:40:00;69.39;39.25;84.42;;
18377;Laerm;9315;52.624;13.544;2023-08-17T07:42:27;68.93;42.94;81.75;;
18377;Laerm;9315;52.624;13.544;2023-08-17T07:44:54;66.25;41.15;75.45;;
18377;Laerm;9315;52.624;13.544;2023-08-17T07:47:22;67.98;44.81;84.75;;
18377;Laerm;9315;52.624;13.544;2023-08-17T07:49:49;69.71;44.46;79.60;;
18377;Laerm;9315;52.624;13.544;2023-08-17T07:52:16;69.72;45.63;78.63;;
18377;Laerm;9315;52.624;13.544;2023-08-17T07:54:45;68.06;43.00;78.41;;
18377;Laerm;9315;52.624;13.544;2023-08-17T07:57:13;68.76;40.80;84.22;;
18377;Laerm;9315;52.624;13.544;2023-08-17T07:59:40;69.81;46.30;78.38;;
18377;Laerm;9315;52.624;13.544;2023-08-17T08:02:07;68.82;42.26;80.24;;
18377;Laerm;9315;52.624;13.544;2023-08-17T08:04:34;68.81;43.92;78.65;;
18377;Laerm;9315;52.624;13.544;2023-08-17T08:07:01;72.03;43.34;89.72;;
18377;Laerm;9315;52.624;13.544;2023-08-17T08:09:28;69.03;42.31;82.18;;
18377;Laerm;9315;52.624;13.544;2023-08-17T08:11:57;69.02;42.44;80.69;;
18377;Laerm;9315;52.624;13.544;2023-08-17T08:14:26;66.09;43.44;74.18;;
18377;Laerm;9315;52.624;13.544;2023-08-17T08:16:54;68.85;43.88;84.81;;
18377;Laerm;9315;52.624;13.544;2023-08-17T08:19:21;68.17;41.99;78.34;;
18377;Laerm;9315;52.624;13.544;2023-08-17T08:21:48;68.88;40.96;76.82;;
18377;Laerm;9315;52.624;13.544;2023-08-17T08:24:16;68.63;45.75;75.62;;
18377;Laerm;9315;52.624;13.544;2023-08-17T08:26:52;67.59;44.41;78.79;;
18377;Laerm;9315;52.624;13.544;2023-08-17T08:29:21;70.43;45.21;84.91;;
18377;Laerm;9315;52.624;13.544;2023-08-17T08:31:51;68.08;44.01;78.43;;
18377;Laerm;9315;52.624;13.544;2023-08-17T08:34:18;68.60;47.08;78.16;;
18377;Laerm;9315;52.624;13.544;2023-08-17T08:36:45;68.54;46.56;81.47;;
18377;Laerm;9315;52.624;13.544;2023-08-17T08:39:12;67.15;42.60;79.23;;
18377;Laerm;9315;52.624;13.544;2023-08-17T08:41:40;69.55;47.57;82.67;;
18377;Laerm;9315;52.624;13.544;2023-08-17T08:44:07;68.11;47.14;77.38;;
18377;Laerm;9315;52.624;13.544;2023-08-17T08:46:36;70.16;46.18;94.51;;
18377;Laerm;9315;52.624;13.544;2023-08-17T08:49:10;69.24;45.87;82.57;;
18377;Laerm;9315;52.624;13.544;2023-08-17T08:51:51;70.24;44.29;85.59;;
18377;Laerm;9315;52.624;13.544;2023-08-17T08:54:22;66.88;47.32;78.08;;
18377;Laerm;9315;52.624;13.544;2023-08-17T08:56:59;67.25;44.78;79.18;;
18377;Laerm;9315;52.624;13.544;2023-08-17T08:59:29;68.30;45.60;78.12;;
18377;Laerm;9315;52.624;13.544;2023-08-17T09:01:58;66.13;43.19;75.19;;
18377;Laerm;9315;52.624;13.544;2023-08-17T09:04:26;69.97;46.29;83.38;;
18377;Laerm;9315;52.624;13.544;2023-08-17T09:06:55;68.50;45.73;79.19;;
18377;Laerm;9315;52.624;13.544;2023-08-17T09:09:23;69.41;44.71;80.84;;
18377;Laerm;9315;52.624;13.544;2023-08-17T09:11:56;70.31;46.07;84.47;;
18377;Laerm;9315;52.624;13.544;2023-08-17T09:14:24;69.74;48.34;88.80;;
18377;Laerm;9315;52.624;13.544;2023-08-17T09:16:51;70.47;54.21;81.84;;
18377;Laerm;9315;52.624;13.544;2023-08-17T09:19:19;68.73;48.06;79.50;;
18377;Laerm;9315;52.624;13.544;2023-08-17T09:21:47;69.71;45.14;80.58;;
18377;Laerm;9315;52.624;13.544;2023-08-17T09:24:17;67.47;45.62;76.97;;
18377;Laerm;9315;52.624;13.544;2023-08-17T09:26:45;67.37;49.03;79.66;;
18377;Laerm;9315;52.624;13.544;2023-08-17T09:29:20;68.73;48.16;79.25;;
18377;Laerm;9315;52.624;13.544;2023-08-17T09:31:48;67.58;41.22;78.44;;
18377;Laerm;9315;52.624;13.544;2023-08-17T09:34:15;71.30;44.76;83.43;;
18377;Laerm;9315;52.624;13.544;2023-08-17T09:36:46;69.08;48.79;80.60;;
18377;Laerm;9315;52.624;13.544;2023-08-17T09:39:17;68.44;49.48;78.57;;
18377;Laerm;9315;52.624;13.544;2023-08-17T09:41:47;68.26;49.07;79.20;;
18377;Laerm;9315;52.624;13.544;2023-08-17T09:44:15;69.40;46.63;82.58;;
18377;Laerm;9315;52.624;13.544;2023-08-17T09:46:44;68.95;44.14;81.44;;
18377;Laerm;9315;52.624;13.544;2023-08-17T09:49:11;67.24;42.84;78.10;;
18377;Laerm;9315;52.624;13.544;2023-08-17T09:51:47;70.53;51.04;83.24;;
18377;Laerm;9315;52.624;13.544;2023-08-17T09:54:22;69.62;48.39;81.99;;
18377;Laerm;9315;52.624;13.544;2023-08-17T09:56:51;68.90;48.35;79.80;;
18377;Laerm;9315;52.624;13.544;2023-08-17T09:59:20;69.98;47.58;80.20;;
18377;Laerm;9315;52.624;13.544;2023-08-17T10:01:50;68.57;50.23;78.96;;
18377;Laerm;9315;52.624;13.544;2023-08-17T10:04:22;68.96;46.13;79.64;;
18377;Laerm;9315;52.624;13.544;2023-08-17T10:07:00;68.08;42.76;82.07;;
18377;Laerm;9315;52.624;13.544;2023-08-17T10:09:42;68.48;42.76;82.28;;
18377;Laerm;9315;52.624;13.544;2023-08-17T10:12:16;67.12;44.31;77.06;;
18377;Laerm;9315;52.624;13.544;2023-08-17T10:14:52;70.20;43.98;83.95;;
18377;Laerm;9315;52.624;13.544;2023-08-17T10:17:26;69.04;45.19;76.97;;
18377;Laerm;9315;52.624;13.544;2023-08-17T10:20:01;70.46;48.06;85.38;;
18377;Laerm;9315;52.624;13.544;2023-08-17T10:22:31;70.45;50.19;84.01;;
18377;Laerm;9315;52.624;13.544;2023-08-17T10:25:07;67.45;40.97;78.47;;
18377;Laerm;9315;52.624;13.544;2023-08-17T10:27:35;68.08;44.29;85.17;;
18377;Laerm;9315;52.624;13.544;2023-08-17T10:30:04;70.42;50.43;80.60;;
18377;Laerm;9315;52.624;13.544;2023-08-17T10:32:36;68.59;46.03;82.80;;
18377;Laerm;9315;52.624;13.544;2023-08-17T10:35:04;66.52;41.75;74.69;;
18377;Laerm;9315;52.624;13.544;2023-08-17T10:37:32;68.12;47.86;75.75;;
18377;Laerm;9315;52.624;13.544;2023-08-17T10:40:00;68.77;48.47;79.16;;
18377;Laerm;9315;52.624;13.544;2023-08-17T10:42:35;68.69;51.58;80.55;;
18377;Laerm;9315;52.624;13.544;2023-08-17T10:47:49;68.85;47.62;77.84;;
18377;Laerm;9315;52.624;13.544;2023-08-17T10:50:25;69.21;47.49;82.63;;
18377;Laerm;9315;52.624;13.544;2023-08-17T10:52:54;67.31;40.77;76.71;;
18377;Laerm;9315;52.624;13.544;2023-08-17T10:55:44;69.00;46.05;83.28;;
18377;Laerm;9315;52.624;13.544;2023-08-17T10:58:11;69.44;47.41;82.67;;
18377;Laerm;9315;52.624;13.544;2023-08-17T11:00:42;67.17;43.44;75.73;;
18377;Laerm;9315;52.624;13.544;2023-08-17T11:03:20;67.87;44.09;78.85;;
18377;Laerm;9315;52.624;13.544;2023-08-17T11:05:55;68.72;45.71;82.71;;
18377;Laerm;9315;52.624;13.544;2023-08-17T11:08:32;66.06;45.56;76.80;;
18377;Laerm;9315;52.624;13.544;2023-08-17T11:11:09;69.04;44.14;84.01;;
18377;Laerm;9315;52.624;13.544;2023-08-17T11:13:43;68.60;41.37;77.70;;
18377;Laerm;9315;52.624;13.544;2023-08-17T11:16:16;69.02;48.81;79.14;;
18377;Laerm;9315;52.624;13.544;2023-08-17T11:18:47;68.27;46.66;79.84;;
18377;Laerm;9315;52.624;13.544;2023-08-17T11:21:18;68.62;44.07;81.19;;
18377;Laerm;9315;52.624;13.544;2023-08-17T11:23:46;67.75;48.32;77.86;;
18377;Laerm;9315;52.624;13.544;2023-08-17T11:26:19;68.44;52.93;77.66;;
18377;Laerm;9315;52.624;13.544;2023-08-17T11:28:50;66.75;44.00;80.36;;
18377;Laerm;9315;52.624;13.544;2023-08-17T11:31:20;69.52;47.33;83.22;;
18377;Laerm;9315;52.624;13.544;2023-08-17T11:33:47;68.62;42.45;78.25;;
18377;Laerm;9315;52.624;13.544;2023-08-17T11:36:15;67.57;44.22;77.42;;
18377;Laerm;9315;52.624;13.544;2023-08-17T11:38:44;66.03;43.17;74.46;;
18377;Laerm;9315;52.624;13.544;2023-08-17T11:41:12;69.75;43.21;84.42;;
18377;Laerm;9315;52.624;13.544;2023-08-17T11:43:43;69.24;47.17;81.16;;
18377;Laerm;9315;52.624;13.544;2023-08-17T11:46:12;68.56;51.97;80.83;;
18377;Laerm;9315;52.624;13.544;2023-08-17T11:48:40;68.24;48.82;80.59;;
18377;Laerm;9315;52.624;13.544;2023-08-17T11:51:07;68.46;46.93;79.52;;
18377;Laerm;9315;52.624;13.544;2023-08-17T11:53:38;68.27;46.22;78.10;;
18377;Laerm;9315;52.624;13.544;2023-08-17T11:56:07;69.09;48.62;80.59;;
18377;Laerm;9315;52.624;13.544;2023-08-17T11:58:45;68.53;43.39;79.47;;
18377;Laerm;9315;52.624;13.544;2023-08-17T12:01:13;70.63;42.81;85.45;;
18377;Laerm;9315;52.624;13.544;2023-08-17T12:03:43;67.27;40.43;76.93;;
18377;Laerm;9315;52.624;13.544;2023-08-17T12:06:11;69.77;45.89;81.95;;
18377;Laerm;9315;52.624;13.544;2023-08-17T12:08:50;67.70;45.29;76.81;;
18377;Laerm;9315;52.624;13.544;2023-08-17T12:11:17;68.43;49.24;76.62;;
18377;Laerm;9315;52.624;13.544;2023-08-17T12:13:52;68.70;50.73;80.71;;
18377;Laerm;9315;52.624;13.544;2023-08-17T12:16:30;66.99;45.26;76.08;;
18377;Laerm;9315;52.624;13.544;2023-08-17T12:18:57;68.92;43.93;78.28;;
18377;Laerm;9315;52.624;13.544;2023-08-17T12:21:24;68.42;48.50;80.59;;
18377;Laerm;9315;52.624;13.544;2023-08-17T12:23:53;67.58;46.22;81.67;;
18377;Laerm;9315;52.624;13.544;2023-08-17T12:26:21;67.71;39.49;79.02;;
18377;Laerm;9315;52.624;13.544;2023-08-17T12:28:52;70.29;47.98;83.43;;
18377;Laerm;9315;52.624;13.544;2023-08-17T12:31:23;67.57;40.91;76.28;;
18377;Laerm;9315;52.624;13.544;2023-08-17T12:33:52;68.44;43.89;74.18;;
18377;Laerm;9315;52.624;13.544;2023-08-17T12:36:19;69.00;51.75;80.16;;
18377;Laerm;9315;52.624;13.544;2023-08-17T12:38:51;68.59;43.43;82.24;;
18377;Laerm;9315;52.624;13.544;2023-08-17T12:41:19;68.65;43.10;76.97;;
18377;Laerm;9315;52.624;13.544;2023-08-17T12:43:46;69.06;41.91;79.52;;
18377;Laerm;9315;52.624;13.544;2023-08-17T12:46:14;70.62;51.35;85.65;;
18377;Laerm;9315;52.624;13.544;2023-08-17T12:48:42;67.90;44.64;81.72;;
18377;Laerm;9315;52.624;13.544;2023-08-17T12:51:11;66.77;46.36;79.34;;
18377;Laerm;9315;52.624;13.544;2023-08-17T12:53:39;68.02;43.66;80.89;;
18377;Laerm;9315;52.624;13.544;2023-08-17T12:56:06;69.73;45.64;83.05;;
18377;Laerm;9315;52.624;13.544;2023-08-17T12:58:36;67.75;45.59;76.96;;
18377;Laerm;9315;52.624;13.544;2023-08-17T13:01:04;70.67;45.72;84.09;;
18377;Laerm;9315;52.624;13.544;2023-08-17T13:03:31;70.85;53.93;80.81;;
18377;Laerm;9315;52.624;13.544;2023-08-17T13:06:04;68.59;43.22;81.85;;
18377;Laerm;9315;52.624;13.544;2023-08-17T13:08:31;67.66;44.05;77.90;;
18377;Laerm;9315;52.624;13.544;2023-08-17T13:11:00;72.79;49.91;97.51;;
18377;Laerm;9315;52.624;13.544;2023-08-17T13:13:27;68.34;50.75;77.91;;
18377;Laerm;9315;52.624;13.544;2023-08-17T13:15:54;71.19;51.40;86.08;;
18377;Laerm;9315;52.624;13.544;2023-08-17T13:18:22;69.00;52.49;86.05;;
18377;Laerm;9315;52.624;13.544;2023-08-17T13:20:49;69.34;48.38;79.62;;
18377;Laerm;9315;52.624;13.544;2023-08-17T13:23:16;69.53;43.80;87.18;;
18377;Laerm;9315;52.624;13.544;2023-08-17T13:25:43;68.94;48.75;77.46;;
18377;Laerm;9315;52.624;13.544;2023-08-17T13:28:11;67.59;42.64;78.59;;
18377;Laerm;9315;52.624;13.544;2023-08-17T13:30:41;68.25;47.20;78.14;;
18377;Laerm;9315;52.624;13.544;2023-08-17T13:33:09;70.76;45.17;89.98;;
18377;Laerm;9315;52.624;13.544;2023-08-17T13:35:36;68.45;47.41;80.04;;
18377;Laerm;9315;52.624;13.544;2023-08-17T13:38:04;68.88;47.91;77.59;;
18377;Laerm;9315;52.624;13.544;2023-08-17T13:40:31;68.17;46.88;78.44;;
18377;Laerm;9315;52.624;13.544;2023-08-17T13:43:00;69.40;44.56;84.84;;
18377;Laerm;9315;52.624;13.544;2023-08-17T13:45:28;68.34;48.24;80.77;;
18377;Laerm;9315;52.624;13.544;2023-08-17T13:47:55;71.64;50.61;89.38;;
18377;Laerm;9315;52.624;13.544;2023-08-17T13:50:22;68.32;49.82;78.37;;
18377;Laerm;9315;52.624;13.544;2023-08-17T13:52:50;76.89;48.02;102.48;;
18377;Laerm;9315;52.624;13.544;2023-08-17T13:55:17;69.29;51.21;81.66;;
18377;Laerm;9315;52.624;13.544;2023-08-17T13:57:44;66.35;50.89;75.25;;
18377;Laerm;9315;52.624;13.544;2023-08-17T14:00:13;68.85;46.78;81.59;;
18377;Laerm;9315;52.624;13.544;2023-08-17T14:02:41;70.61;48.52;83.46;;